Time;durP1;ratioP1;P1;durP2;ratioP2;P2;SDS_P1;SDS_P2;PMS_P1;PMS_P2;Temp;Humidity;BMP_temperature;BMP_pressure;BME280_temperature;BME280_humidity;BME280_pressure;Samples;Min_cycle;Max_cycle;Signal;HPM_P1;HPM_P2
2021/07/08 00:00:45;;;;;;;8.25;6.80;;;;;;;24.44;65.54;99663.72;5057799;28;20068;-71
2021/07/08 00:03:14;;;;;;;8.93;7.15;;;;;;;24.41;65.68;99671.72;5057766;28;20057;-71
2021/07/08 00:05:45;;;;;;;;;;;;;;;24.43;65.84;99675.09;5058110;28;20034;-71
2021/07/08 00:08:15;;;;;;;10.07;7.35;;;;;;;24.45;65.75;99678.47;5057711;28;20290;-71
2021/07/08 00:10:46;;;;;;;9.20;7.20;;;;;;;24.45;65.66;99683.69;5057849;28;20091;-71
2021/07/08 00:13:20;;;;;;;9.95;7.25;;;;;;;24.43;65.58;99681.16;5057525;28;20033;-71
2021/07/08 00:15:49;;;;;;;9.95;7.32;;;;;;;24.44;65.67;99676.78;5057551;28;20037;-72
2021/07/08 00:18:19;;;;;;;;;;;;;;;24.45;65.92;99678.47;5058194;28;20037;-71
2021/07/08 00:20:50;;;;;;;9.50;6.57;;;;;;;24.43;65.92;99686.38;5057381;28;19971;-71
2021/07/08 00:23:23;;;;;;;8.93;6.75;;;;;;;24.42;65.93;99683.88;5057101;28;20037;-71
2021/07/08 00:25:55;;;;;;;8.57;7.00;;;;;;;24.41;65.97;99687.38;5057362;28;20037;-71
2021/07/08 00:28:24;;;;;;;8.48;6.72;;;;;;;24.35;66.37;99692.97;5057218;28;20475;-72
2021/07/08 00:30:53;;;;;;;7.97;6.82;;;;;;;24.36;66.44;99690.25;5056949;28;20041;-71
2021/07/08 00:33:23;;;;;;;8.77;6.85;;;;;;;24.36;66.42;99694.63;5056802;28;20049;-71
2021/07/08 00:35:53;;;;;;;;;;;;;;;24.38;66.46;99692.78;5057224;28;20490;-71
2021/07/08 00:38:22;;;;;;;13.55;7.00;;;;;;;24.39;66.46;99690.09;5057078;28;20441;-71
2021/07/08 00:40:51;;;;;;;9.52;7.10;;;;;;;24.43;66.37;99688.13;5056761;28;20479;-71
2021/07/08 00:43:21;;;;;;;8.55;6.55;;;;;;;24.39;66.50;99681.41;5057046;28;20049;-71
2021/07/08 00:45:50;;;;;;;7.75;6.28;;;;;;;24.40;66.49;99688.34;5038710;28;20053;-71
2021/07/08 00:48:19;;;;;;;9.43;6.80;;;;;;;24.45;66.41;99688.91;5056924;28;20116;-71
2021/07/08 00:50:49;;;;;;;;;;;;;;;24.37;66.50;99680.66;5057027;28;20048;-70
2021/07/08 00:53:20;;;;;;;9.83;7.10;;;;;;;24.30;66.90;99679.34;5056459;28;19967;-71
2021/07/08 00:55:56;;;;;;;8.15;6.45;;;;;;;24.26;66.77;99681.25;5056837;28;20051;-71
2021/07/08 00:58:26;;;;;;;9.75;6.55;;;;;;;24.21;67.05;99682.47;5056777;28;20527;-72
2021/07/08 01:00:54;;;;;;;;;;;;;;;24.21;67.07;99685.09;5057136;28;20429;-71
2021/07/08 01:03:24;;;;;;;9.00;6.32;;;;;;;24.27;66.89;99672.53;5056646;28;19921;-72
2021/07/08 01:05:55;;;;;;;8.88;6.63;;;;;;;24.32;66.61;99677.47;5055630;28;20095;-72
2021/07/08 01:08:27;;;;;;;7.95;6.28;;;;;;;24.31;66.57;99670.56;5055926;28;20037;-72
2021/07/08 01:10:58;;;;;;;9.43;6.97;;;;;;;24.29;66.76;99682.88;5021823;28;20494;-72
2021/07/08 01:13:28;;;;;;;8.35;6.97;;;;;;;24.25;66.87;99676.16;5056061;28;20049;-71
2021/07/08 01:15:57;;;;;;;;;;;;;;;24.28;66.65;99678.59;5056776;28;20449;-71
2021/07/08 01:18:26;;;;;;;9.52;7.13;;;;;;;24.29;66.69;99680.25;5056321;28;20374;-71
2021/07/08 01:20:55;;;;;;;9.18;6.45;;;;;;;24.21;66.62;99675.47;5056412;28;20045;-71
2021/07/08 01:23:26;;;;;;;8.68;6.93;;;;;;;24.10;67.03;99677.84;5056278;28;20161;-71
2021/07/08 01:25:55;;;;;;;9.48;6.90;;;;;;;24.05;67.22;99674.63;5038335;28;20375;-71
2021/07/08 01:28:25;;;;;;;24.23;10.73;;;;;;;23.97;67.50;99677.66;5056344;28;20037;-71
2021/07/08 01:30:54;;;;;;;28.25;12.27;;;;;;;23.88;67.66;99679.94;5056093;28;20056;-71
2021/07/08 01:33:23;;;;;;;30.13;14.35;;;;;;;23.83;67.64;99669.75;5055700;28;20084;-71
2021/07/08 01:35:52;;;;;;;24.35;12.02;;;;;;;23.90;67.76;99681.53;5055688;28;20090;-71
2021/07/08 01:38:21;;;;;;;17.88;9.48;;;;;;;23.91;67.54;99678.00;5055607;28;20037;-71
2021/07/08 01:40:52;;;;;;;10.98;7.88;;;;;;;23.95;67.29;99684.72;5055583;28;20045;-71
2021/07/08 01:43:21;;;;;;;11.52;7.15;;;;;;;24.02;66.76;99681.78;5055935;28;20045;-71
2021/07/08 01:45:50;;;;;;;9.98;7.18;;;;;;;24.02;66.83;99680.84;5055618;28;20037;-71
2021/07/08 01:48:20;;;;;;;10.00;6.97;;;;;;;24.01;66.95;99678.34;5055492;28;20140;-71
2021/07/08 01:50:49;;;;;;;10.27;7.32;;;;;;;24.00;66.65;99672.28;5055479;28;20072;-71
2021/07/08 01:53:19;;;;;;;11.18;6.72;;;;;;;23.96;66.55;99681.19;5055433;28;20080;-71
2021/07/08 01:55:48;;;;;;;8.27;6.57;;;;;;;23.90;66.89;99675.47;5055108;28;20047;-71
2021/07/08 01:58:19;;;;;;;8.35;6.50;;;;;;;23.91;66.92;99680.63;5055286;28;20128;-71
2021/07/08 02:00:49;;;;;;;9.25;6.80;;;;;;;23.87;66.90;99680.88;5055876;28;20107;-71
2021/07/08 02:03:18;;;;;;;7.65;6.20;;;;;;;23.86;66.62;99685.25;5055058;28;20041;-71
2021/07/08 02:05:47;;;;;;;7.10;6.18;;;;;;;23.82;66.68;99691.56;5055051;28;20459;-72
2021/07/08 02:08:17;;;;;;;10.15;6.85;;;;;;;23.79;66.90;99694.31;5055320;28;20048;-72
2021/07/08 02:10:46;;;;;;;8.93;6.80;;;;;;;23.80;66.74;99701.19;5055328;28;20091;-71
2021/07/08 02:13:16;;;;;;;8.23;6.72;;;;;;;23.81;66.48;99708.09;5054975;28;20049;-71
2021/07/08 02:15:46;;;;;;;7.82;6.13;;;;;;;23.82;66.25;99701.97;5055095;28;20061;-71
2021/07/08 02:18:16;;;;;;;8.13;6.32;;;;;;;23.83;66.15;99688.00;5055011;28;20041;-71
2021/07/08 02:20:45;;;;;;;7.70;6.20;;;;;;;23.80;65.92;99706.41;5054798;28;20052;-71
2021/07/08 02:23:14;;;;;;;8.07;6.22;;;;;;;23.74;66.13;99701.53;5054775;28;20076;-72
2021/07/08 02:25:43;;;;;;;8.43;6.18;;;;;;;23.71;65.89;99706.91;5055070;28;20402;-71
2021/07/08 02:28:12;;;;;;;;;;;;;;;23.70;65.79;99705.25;5055149;28;20087;-72
2021/07/08 02:30:41;;;;;;;8.77;6.37;;;;;;;23.71;65.68;99711.28;5054624;28;19928;-71
2021/07/08 02:33:12;;;;;;;7.47;5.88;;;;;;;23.73;65.46;99718.09;5054516;28;20274;-71
2021/07/08 02:35:42;;;;;;;9.32;6.32;;;;;;;23.77;65.31;99710.97;5054566;28;20045;-70
2021/07/08 02:38:11;;;;;;;12.38;6.32;;;;;;;23.77;64.98;99706.59;5054593;28;20041;-71
2021/07/08 02:40:40;;;;;;;7.90;5.90;;;;;;;23.78;64.91;99723.91;5054422;28;20123;-71
2021/07/08 02:43:10;;;;;;;7.40;5.88;;;;;;;23.73;65.10;99720.69;5054399;28;20045;-71
2021/07/08 02:45:40;;;;;;;7.93;6.10;;;;;;;23.75;65.04;99713.66;5054698;28;20033;-72
2021/07/08 02:48:14;;;;;;;8.68;6.57;;;;;;;23.75;65.07;99718.88;5054698;28;20040;-71
2021/07/08 02:50:45;;;;;;;8.63;6.07;;;;;;;23.73;64.94;99723.31;5054303;28;20045;-71
2021/07/08 02:53:14;;;;;;;8.25;6.10;;;;;;;23.71;64.81;99722.56;5054871;28;20048;-71
2021/07/08 02:55:43;;;;;;;;;;;;;;;23.64;64.92;99726.41;5054889;28;20048;-71
2021/07/08 02:58:13;;;;;;;8.90;6.17;;;;;;;23.58;65.20;99724.16;5054127;28;19928;-71
2021/07/08 03:00:41;;;;;;;;;;;;;;;23.53;65.34;99723.53;5054866;28;20049;-71
2021/07/08 03:03:12;;;;;;;8.88;6.82;;;;;;;23.46;65.63;99727.41;5054061;28;19920;-71
2021/07/08 03:05:42;;;;;;;7.32;6.00;;;;;;;23.44;65.85;99733.63;5054150;28;20033;-71
2021/07/08 03:08:11;;;;;;;8.90;6.57;;;;;;;23.43;65.84;99731.91;5020360;28;20585;-71
2021/07/08 03:10:40;;;;;;;7.85;6.30;;;;;;;23.37;65.81;99732.25;5054301;28;20043;-71
2021/07/08 03:13:10;;;;;;;8.65;6.70;;;;;;;23.32;66.25;99737.69;5054209;28;20061;-71
2021/07/08 03:15:39;;;;;;;7.28;5.93;;;;;;;23.21;66.39;99738.22;5053998;28;20065;-71
2021/07/08 03:18:08;;;;;;;11.75;6.57;;;;;;;23.17;66.36;99730.63;5054136;28;20041;-71
2021/07/08 03:20:39;;;;;;;10.20;6.47;;;;;;;23.15;66.50;99740.31;5053772;28;20094;-71
2021/07/08 03:23:08;;;;;;;8.30;5.82;;;;;;;23.15;66.52;99742.91;5053843;28;20491;-71
2021/07/08 03:25:37;;;;;;;10.02;6.88;;;;;;;23.19;66.38;99749.63;5053550;28;20057;-71
2021/07/08 03:28:07;;;;;;;9.45;5.68;;;;;;;23.20;66.30;99752.16;5053731;28;20361;-71
2021/07/08 03:30:36;;;;;;;9.18;6.15;;;;;;;23.22;65.98;99754.69;5052976;28;20045;-71
2021/07/08 03:33:06;;;;;;;8.10;6.00;;;;;;;23.06;66.27;99754.59;5053614;28;20116;-71
2021/07/08 03:35:35;;;;;;;;;;;;;;;23.07;66.32;99748.50;5019538;28;20490;-71
2021/07/08 03:38:06;;;;;;;8.80;6.07;;;;;;;23.07;66.38;99750.25;5053531;28;19920;-71
2021/07/08 03:40:35;;;;;;;9.00;6.10;;;;;;;23.09;66.88;99758.81;5053889;28;20489;-71
2021/07/08 03:43:05;;;;;;;8.85;6.57;;;;;;;23.17;66.48;99746.25;5053769;28;20041;-71
2021/07/08 03:45:34;;;;;;;7.97;6.15;;;;;;;23.26;66.10;99754.44;5054105;28;20067;-72
2021/07/08 03:48:04;;;;;;;9.43;6.82;;;;;;;23.25;66.27;99751.94;5053728;28;20030;-71
2021/07/08 03:50:34;;;;;;;8.98;6.57;;;;;;;23.37;66.00;99748.69;5053628;28;20045;-72
2021/07/08 03:53:03;;;;;;;8.55;6.93;;;;;;;23.33;66.02;99757.56;5035582;28;20520;-72
2021/07/08 03:55:35;;;;;;;9.15;6.80;;;;;;;23.35;66.15;99760.97;5053358;28;20056;-71
2021/07/08 03:58:05;;;;;;;10.82;7.22;;;;;;;23.47;65.50;99755.13;5053421;28;20086;-71
2021/07/08 04:00:36;;;;;;;7.32;5.88;;;;;;;23.51;65.32;99756.66;5053243;28;20499;-71
2021/07/08 04:03:07;;;;;;;9.52;6.70;;;;;;;23.53;65.13;99752.22;5053326;28;20559;-71
2021/07/08 04:05:37;;;;;;;7.05;5.60;;;;;;;23.59;64.82;99741.44;5053676;28;20037;-71
2021/07/08 04:08:08;;;;;;;8.85;6.10;;;;;;;23.72;64.52;99750.31;5053885;28;20095;-71
2021/07/08 04:10:40;;;;;;;8.40;6.07;;;;;;;23.80;63.95;99747.31;5053254;28;20045;-71
2021/07/08 04:13:12;;;;;;;8.18;5.82;;;;;;;23.88;63.93;99751.16;5053840;28;20487;-71
2021/07/08 04:15:42;;;;;;;15.25;6.82;;;;;;;23.96;63.71;99754.22;5053180;28;20044;-71
2021/07/08 04:18:13;;;;;;;8.23;5.78;;;;;;;23.99;63.28;99754.03;5053535;28;20040;-70
2021/07/08 04:20:42;;;;;;;8.65;5.53;;;;;;;24.00;63.55;99749.66;5053781;28;20048;-71
2021/07/08 04:23:12;;;;;;;;;;;;;;;24.04;63.54;99751.19;5053162;28;20045;-71
2021/07/08 04:25:42;;;;;;;;;;;;;;;24.11;63.56;99757.78;5053437;28;19927;-71
2021/07/08 04:28:12;;;;;;;8.95;6.07;;;;;;;24.19;63.76;99749.53;5052961;28;19928;-72
2021/07/08 04:30:43;;;;;;;9.98;6.35;;;;;;;24.21;63.60;99745.09;5052826;28;20041;-71
2021/07/08 04:33:17;;;;;;;10.13;5.85;;;;;;;24.32;63.53;99753.16;5053251;28;20447;-71
2021/07/08 04:35:46;;;;;;;8.60;6.32;;;;;;;24.29;63.60;99751.53;5053220;28;20124;-71
2021/07/08 04:38:16;;;;;;;9.27;6.03;;;;;;;24.42;63.71;99749.09;5053621;28;20036;-71
2021/07/08 04:40:47;;;;;;;10.57;6.32;;;;;;;24.64;63.18;99754.81;5036146;28;20398;-71
2021/07/08 04:43:17;;;;;;;11.43;6.50;;;;;;;24.80;62.94;99757.38;5056738;28;20049;-72
2021/07/08 04:45:46;;;;;;;12.07;5.60;;;;;;;24.85;62.98;99756.19;5056558;28;20514;-71
2021/07/08 04:48:15;;;;;;;10.27;6.03;;;;;;;24.93;62.92;99769.63;5056493;28;20076;-72
2021/07/08 04:50:45;;;;;;;12.60;6.25;;;;;;;25.11;62.23;99768.59;5056546;28;20033;-71
2021/07/08 04:53:16;;;;;;;9.13;6.30;;;;;;;25.22;61.93;99760.09;5056622;28;20037;-71
2021/07/08 04:55:47;;;;;;;9.48;6.20;;;;;;;25.29;61.96;99762.25;5056295;28;20053;-71
2021/07/08 04:58:16;;;;;;;8.43;6.15;;;;;;;25.29;61.85;99759.63;5056807;28;20094;-71
2021/07/08 05:00:45;;;;;;;10.32;6.45;;;;;;;25.47;61.75;99759.50;5056359;28;20045;-71
2021/07/08 05:03:15;;;;;;;8.55;6.47;;;;;;;25.57;61.21;99761.47;5056677;28;20127;-72
2021/07/08 05:05:44;;;;;;;11.43;6.25;;;;;;;25.73;60.77;99757.00;5056378;28;20057;-71
2021/07/08 05:08:13;;;;;;;12.75;7.18;;;;;;;25.96;60.54;99758.19;5056580;28;20064;-71
2021/07/08 05:10:42;;;;;;;10.88;6.43;;;;;;;26.10;60.31;99750.31;5056567;28;20044;-71
2021/07/08 05:13:12;;;;;;;11.80;5.95;;;;;;;26.30;59.53;99756.94;5056100;28;20099;-71
2021/07/08 05:15:42;;;;;;;10.52;6.57;;;;;;;26.43;59.05;99753.44;5056159;28;20164;-71
2021/07/08 05:18:11;;;;;;;9.77;6.15;;;;;;;26.41;59.45;99751.84;5055991;28;20045;-71
2021/07/08 05:20:41;;;;;;;10.68;6.65;;;;;;;26.51;59.05;99751.13;5056531;28;20058;-71
2021/07/08 05:23:16;;;;;;;12.63;6.68;;;;;;;26.61;58.53;99756.59;5055991;28;20119;-71
2021/07/08 05:25:46;;;;;;;12.73;6.63;;;;;;;26.71;57.55;99757.69;5056194;28;20048;-71
2021/07/08 05:28:17;;;;;;;9.77;7.32;;;;;;;26.85;57.46;99755.03;5055853;28;20406;-71
2021/07/08 05:30:46;;;;;;;8.80;6.47;;;;;;;26.98;57.12;99753.28;5055670;28;20163;-71
2021/07/08 05:33:15;;;;;;;7.90;6.20;;;;;;;27.15;56.55;99767.88;5056080;28;20552;-71
2021/07/08 05:35:44;;;;;;;9.15;6.78;;;;;;;27.28;56.27;99769.56;5055971;28;20131;-71
2021/07/08 05:38:13;;;;;;;10.88;6.00;;;;;;;27.38;56.15;99775.03;5055686;28;20116;-71
2021/07/08 05:40:42;;;;;;;7.65;6.00;;;;;;;27.49;55.96;99777.78;5055951;28;20438;-71
2021/07/08 05:43:11;;;;;;;11.35;7.18;;;;;;;27.64;55.42;99776.72;5055522;28;20056;-71
2021/07/08 05:45:42;;;;;;;9.52;6.63;;;;;;;27.78;55.47;99781.03;5055815;28;20033;-72
2021/07/08 05:48:11;;;;;;;8.80;6.10;;;;;;;27.87;55.29;99775.13;5055526;28;20053;-71
2021/07/08 05:50:40;;;;;;;8.48;6.05;;;;;;;27.98;54.45;99774.38;5055373;28;20049;-71
2021/07/08 05:53:09;;;;;;;7.85;6.25;;;;;;;28.07;54.53;99773.75;5054783;28;20127;-71
2021/07/08 05:55:38;;;;;;;8.75;6.10;;;;;;;28.11;54.44;99783.09;5055237;28;20064;-71
2021/07/08 05:58:07;;;;;;;9.88;6.30;;;;;;;28.12;54.51;99777.72;5055217;28;20392;-71
2021/07/08 06:00:36;;;;;;;9.15;5.95;;;;;;;28.31;54.10;99787.75;5055215;28;20041;-71
2021/07/08 06:03:06;;;;;;;9.95;6.50;;;;;;;28.51;53.48;99777.47;5055173;28;20044;-71
2021/07/08 06:05:35;;;;;;;9.02;6.70;;;;;;;28.64;53.23;99771.38;5055792;28;20052;-71
2021/07/08 06:08:05;;;;;;;7.68;6.07;;;;;;;28.81;52.47;99774.44;5055104;28;20479;-71
2021/07/08 06:10:33;;;;;;;;;;;;;;;28.99;51.26;99778.31;5055426;28;20049;-71
2021/07/08 06:13:03;;;;;;;9.48;5.75;;;;;;;29.14;50.91;99777.16;5054926;28;20434;-71
2021/07/08 06:15:32;;;;;;;7.55;5.80;;;;;;;29.19;50.90;99784.72;5054895;28;20041;-71
2021/07/08 06:18:01;;;;;;;7.93;5.65;;;;;;;29.19;50.70;99782.09;5054752;28;20484;-71
2021/07/08 06:20:33;;;;;;;7.65;5.10;;;;;;;29.18;50.59;99786.50;5054745;28;20065;-71
2021/07/08 06:23:02;;;;;;;7.03;5.05;;;;;;;29.32;48.93;99782.00;5054718;28;20049;-71
2021/07/08 06:25:31;;;;;;;7.22;5.47;;;;;;;29.40;48.31;99784.88;5054990;28;20127;-71
2021/07/08 06:28:00;;;;;;;6.57;5.45;;;;;;;29.50;47.74;99781.44;5055069;28;20036;-71
2021/07/08 06:30:29;;;;;;;6.80;5.38;;;;;;;29.63;47.19;99786.59;5054531;28;20052;-71
2021/07/08 06:32:58;;;;;;;6.93;5.20;;;;;;;29.59;46.11;99779.88;5054597;28;20040;-71
2021/07/08 06:35:27;;;;;;;8.57;5.47;;;;;;;29.62;45.82;99784.91;5054513;28;20049;-70
2021/07/08 06:37:58;;;;;;;6.72;5.20;;;;;;;29.75;46.06;99783.00;5054773;28;20040;-70
2021/07/08 06:40:27;;;;;;;6.15;4.97;;;;;;;29.86;45.95;99780.41;5054498;28;20131;-71
2021/07/08 06:42:57;;;;;;;9.10;5.47;;;;;;;30.03;45.97;99774.63;5054373;28;20076;-71
2021/07/08 06:45:26;;;;;;;7.78;5.45;;;;;;;30.20;45.89;99779.41;5055001;28;20430;-70
2021/07/08 06:48:01;;;;;;;6.35;5.18;;;;;;;30.23;44.62;99776.53;5054242;28;20098;-70
2021/07/08 06:50:33;;;;;;;6.30;5.10;;;;;;;30.31;44.91;99779.38;5054276;28;20053;-70
2021/07/08 06:53:05;;;;;;;8.63;5.40;;;;;;;30.50;44.82;99776.94;5054437;28;20486;-70
2021/07/08 06:55:36;;;;;;;7.28;4.50;;;;;;;30.69;44.69;99778.09;5054553;28;20086;-71
2021/07/08 06:58:05;;;;;;;6.70;5.50;;;;;;;30.67;44.63;99778.22;5054009;28;20059;-71
2021/07/08 07:00:35;;;;;;;;;;;;;;;30.69;44.20;99783.38;5054419;28;20073;-71
2021/07/08 07:03:06;;;;;;;7.47;5.40;;;;;;;30.80;43.86;99780.69;5054131;28;20286;-71
2021/07/08 07:05:35;;;;;;;5.57;4.90;;;;;;;30.89;44.23;99778.16;5053386;28;20072;-70
2021/07/08 07:08:06;;;;;;;7.38;5.43;;;;;;;31.02;43.64;99791.16;5054554;28;20044;-70
2021/07/08 07:10:35;;;;;;;6.95;5.35;;;;;;;31.05;43.71;99783.81;5053914;28;20041;-70
2021/07/08 07:13:12;;;;;;;8.10;5.55;;;;;;;31.22;43.17;99792.13;5054100;28;20546;-69
2021/07/08 07:15:42;;;;;;;6.50;5.43;;;;;;;31.31;43.10;99794.00;5053734;28;20079;-71
2021/07/08 07:18:10;;;;;;;;;;;;;;;31.39;42.26;99788.88;5053850;28;20083;-71
2021/07/08 07:20:39;;;;;;;7.97;5.47;;;;;;;31.52;42.54;99793.03;5053686;28;19955;-70
2021/07/08 07:23:11;;;;;;;8.52;5.88;;;;;;;31.62;42.09;99795.72;5053802;28;20384;-70
2021/07/08 07:25:41;;;;;;;7.80;5.63;;;;;;;31.59;42.20;99788.91;5053751;28;20436;-70
2021/07/08 07:28:11;;;;;;;6.32;4.97;;;;;;;31.63;41.70;99787.66;5053468;28;20076;-71
2021/07/08 07:30:41;;;;;;;7.07;5.30;;;;;;;31.62;42.54;99785.16;5053210;28;20486;-70
2021/07/08 07:33:10;;;;;;;6.22;4.97;;;;;;;31.85;42.14;99783.16;5053546;28;20045;-70
2021/07/08 07:35:39;;;;;;;7.13;5.43;;;;;;;31.95;41.70;99791.97;5053424;28;20095;-70
2021/07/08 07:38:12;;;;;;;6.43;5.10;;;;;;;32.08;41.75;99789.97;5053496;28;20030;-70
2021/07/08 07:40:43;;;;;;;6.53;5.20;;;;;;;32.23;41.21;99791.25;5053630;28;20551;-70
2021/07/08 07:43:13;;;;;;;7.28;5.32;;;;;;;32.00;41.66;99795.91;5053419;28;20049;-71
2021/07/08 07:45:43;;;;;;;8.32;5.55;;;;;;;32.08;41.90;99795.25;5053318;28;20044;-71
2021/07/08 07:48:12;;;;;;;6.50;5.03;;;;;;;32.17;41.38;99786.50;5053587;28;20045;-70
2021/07/08 07:50:41;;;;;;;6.20;4.35;;;;;;;32.06;41.46;99789.28;5053354;28;20052;-71
2021/07/08 07:53:12;;;;;;;;;;;;;;;32.05;40.56;99799.00;5053706;28;20037;-72
2021/07/08 07:55:41;;;;;;;7.68;4.90;;;;;;;32.21;40.09;99793.19;5053364;28;19936;-71
2021/07/08 07:58:10;;;;;;;;;;;;;;;32.25;39.88;99789.31;5053568;28;20068;-71
2021/07/08 08:00:43;;;;;;;7.03;4.75;;;;;;;32.32;40.26;99790.44;5053577;28;20346;-70
2021/07/08 08:03:12;;;;;;;6.70;4.63;;;;;;;32.37;40.07;99793.53;5053268;28;20049;-69
2021/07/08 08:05:43;;;;;;;;;;;;;;;32.32;40.26;99779.88;5053604;28;20045;-71
2021/07/08 08:10:53;;;;;;;8.77;4.93;;;;;;;32.78;40.08;99774.78;5053181;28;20407;-71
2021/07/08 08:13:23;;;;;;;5.82;4.90;;;;;;;32.86;40.19;99780.22;5053161;28;20049;-71
2021/07/08 08:15:53;;;;;;;6.45;5.03;;;;;;;32.85;39.94;99778.53;5054208;28;20060;-71
2021/07/08 08:18:24;;;;;;;6.35;4.70;;;;;;;32.91;40.17;99777.97;5056826;28;20052;-70
2021/07/08 08:20:54;;;;;;;7.53;4.85;;;;;;;33.22;39.47;99777.81;5056883;28;20045;-71
2021/07/08 08:23:25;;;;;;;6.65;5.00;;;;;;;33.37;39.10;99779.88;5056829;28;20065;-71
2021/07/08 08:25:54;;;;;;;5.78;4.68;;;;;;;33.42;39.15;99787.41;5056753;28;20064;-72
2021/07/08 08:28:24;;;;;;;7.10;5.15;;;;;;;33.37;38.58;99794.94;5056618;28;20136;-71
2021/07/08 08:30:53;;;;;;;5.55;4.55;;;;;;;33.15;39.19;99785.50;5056185;28;20060;-71
2021/07/08 08:33:23;;;;;;;5.95;4.90;;;;;;;33.21;38.90;99792.03;5056499;28;20045;-71
2021/07/08 08:35:52;;;;;;;6.38;5.43;;;;;;;33.17;39.41;99785.34;5056660;28;20178;-70
2021/07/08 08:38:21;;;;;;;;;;;;;;;33.23;39.14;99788.28;5057295;28;20053;-70
2021/07/08 08:40:52;;;;;;;5.60;4.63;;;;;;;33.33;38.87;99788.25;5056680;28;19925;-70
2021/07/08 08:43:21;;;;;;;8.45;4.97;;;;;;;33.25;38.87;99791.63;5056824;28;20048;-70
2021/07/08 08:45:51;;;;;;;7.55;5.03;;;;;;;33.17;39.10;99793.28;5055988;28;20045;-71
2021/07/08 08:48:21;;;;;;;6.53;4.97;;;;;;;33.16;39.09;99797.78;5055296;28;20507;-72
2021/07/08 08:50:50;;;;;;;6.45;4.70;;;;;;;33.22;39.12;99801.63;5056490;28;20041;-71
2021/07/08 08:53:20;;;;;;;6.78;4.40;;;;;;;33.09;38.31;99794.81;5056549;28;20439;-71
2021/07/08 08:55:51;;;;;;;6.70;4.50;;;;;;;33.18;38.72;99793.16;5056776;28;20091;-71
2021/07/08 08:58:22;;;;;;;7.10;4.90;;;;;;;33.40;38.88;99794.66;5056415;28;20118;-72
2021/07/08 09:00:53;;;;;;;6.15;4.18;;;;;;;33.51;38.34;99792.66;5056219;28;20094;-71
2021/07/08 09:03:26;;;;;;;6.35;4.60;;;;;;;33.53;38.08;99787.22;5056226;28;20187;-71
2021/07/08 09:06:00;;;;;;;5.70;4.28;;;;;;;33.47;37.62;99790.44;5056249;28;20110;-71
2021/07/08 09:08:30;;;;;;;6.50;4.70;;;;;;;33.37;37.73;99784.34;5056127;28;20056;-72
2021/07/08 09:11:09;;;;;;;;;;;;;;;33.63;38.19;99790.69;5056361;28;20402;-70
2021/07/08 09:14:01;;;;;;;7.10;5.03;;;;;;;33.99;37.67;99789.00;5056023;28;20428;-70
2021/07/08 09:16:34;;;;;;;6.00;4.72;;;;;;;34.04;37.35;99768.22;5056037;28;20049;-75
2021/07/08 09:19:09;;;;;;;5.97;4.43;;;;;;;34.06;36.96;99783.00;5055791;28;20053;-72
2021/07/08 09:21:42;;;;;;;6.15;4.50;;;;;;;34.05;36.91;99786.63;5056058;28;20037;-71
2021/07/08 09:24:17;;;;;;;9.65;4.95;;;;;;;34.16;37.23;99781.13;5055550;28;20045;-72
2021/07/08 09:26:54;;;;;;;5.40;4.57;;;;;;;34.18;36.80;99784.47;5055514;28;20125;-71
2021/07/08 09:29:27;;;;;;;6.35;4.78;;;;;;;34.16;36.75;99769.69;5055290;28;20589;-72
2021/07/08 09:31:58;;;;;;;6.57;5.03;;;;;;;34.22;37.02;99777.88;5055900;28;20041;-72
2021/07/08 09:34:30;;;;;;;6.43;4.47;;;;;;;34.27;36.12;99769.47;5037974;28;20037;-72
2021/07/08 09:37:06;;;;;;;7.32;5.18;;;;;;;34.29;36.04;99768.34;5055677;28;20123;-72
2021/07/08 09:39:37;;;;;;;7.10;5.50;;;;;;;34.41;35.64;99766.31;5055506;28;20136;-71
2021/07/08 09:42:07;;;;;;;6.55;5.88;;;;;;;34.47;35.96;99763.06;5055595;28;20049;-71
2021/07/08 09:44:38;;;;;;;6.78;5.55;;;;;;;34.60;35.72;99765.38;5055761;28;20049;-71
2021/07/08 09:47:20;;;;;;;6.50;5.85;;;;;;;34.39;35.88;99774.41;5055345;28;20385;-69
2021/07/08 09:49:50;;;;;;;8.25;6.00;;;;;;;34.50;36.20;99775.19;5037640;28;20045;-70
2021/07/08 09:52:20;;;;;;;7.97;5.72;;;;;;;34.54;35.92;99771.28;5055251;28;20128;-72
2021/07/08 09:57:41;;;;;;;6.65;5.35;;;;;;;34.55;36.01;99765.00;5055371;28;20406;-71
2021/07/08 10:00:33;;;;;;;8.60;5.45;;;;;;;34.46;35.85;99771.19;5054965;28;20486;-71
2021/07/08 10:03:05;;;;;;;7.85;6.38;;;;;;;34.41;35.59;99770.81;5059534;28;20045;-69
2021/07/08 10:05:40;;;;;;;6.90;6.00;;;;;;;34.53;36.10;99770.44;5055345;28;20462;-71
2021/07/08 10:08:11;;;;;;;7.50;6.22;;;;;;;34.61;35.83;99769.69;5055461;28;20475;-72
2021/07/08 10:10:41;;;;;;;8.65;5.78;;;;;;;34.72;36.50;99775.59;5054979;28;20052;-72
2021/07/08 10:13:12;;;;;;;11.68;6.15;;;;;;;34.89;36.12;99777.41;5037451;28;20053;-72
2021/07/08 10:15:43;;;;;;;9.48;6.15;;;;;;;35.11;35.47;99775.25;5055023;28;20041;-71
2021/07/08 10:18:20;;;;;;;8.18;6.05;;;;;;;35.15;35.56;99777.47;5054903;28;20045;-71
2021/07/08 10:20:50;;;;;;;6.80;5.63;;;;;;;35.12;35.40;99764.50;5055093;28;20049;-71
2021/07/08 10:23:21;;;;;;;6.80;5.95;;;;;;;35.21;35.08;99766.22;5054666;28;20045;-72
2021/07/08 10:25:51;;;;;;;8.20;6.38;;;;;;;35.21;34.88;99755.59;5054777;28;20124;-72
2021/07/08 10:28:42;;;;;;;7.28;5.88;;;;;;;35.26;34.85;99753.31;5039978;28;20059;-69
2021/07/08 10:31:15;;;;;;;10.32;6.50;;;;;;;35.15;34.87;99761.56;5054555;28;20057;-72
2021/07/08 10:34:10;;;;;;;8.40;6.38;;;;;;;35.37;34.57;99761.00;5054488;28;20459;-71
2021/07/08 10:36:43;;;;;;;7.75;6.40;;;;;;;35.34;34.50;99761.34;5061726;28;20059;-72
2021/07/08 10:39:15;;;;;;;9.93;6.72;;;;;;;35.06;34.79;99746.53;5074398;28;20087;-72
2021/07/08 10:41:52;;;;;;;13.30;7.00;;;;;;;35.29;35.10;99757.47;5074368;28;20530;-72
2021/07/08 10:44:52;;;;;;;8.55;6.63;;;;;;;34.97;34.66;99686.41;5074667;28;20044;-70
2021/07/08 10:47:33;;;;;;;7.97;6.85;;;;;;;35.46;34.81;99738.84;5074377;28;20059;-71
2021/07/08 10:50:05;;;;;;;10.13;6.70;;;;;;;35.67;34.46;99733.97;5074230;28;20036;-71
2021/07/08 10:52:47;;;;;;;7.53;6.72;;;;;;;35.44;34.46;99740.00;5074235;28;20105;-71
2021/07/08 10:55:38;;;;;;;8.57;6.47;;;;;;;35.38;34.93;99740.59;5074207;28;20048;-72
2021/07/08 10:58:08;;;;;;;10.07;6.60;;;;;;;35.46;34.94;99730.03;5074150;28;20512;-71
2021/07/08 11:00:46;;;;;;;12.43;7.20;;;;;;;35.70;34.71;99729.34;5073977;28;20044;-72
2021/07/08 11:03:37;;;;;;;7.93;6.90;;;;;;;35.80;34.49;99708.78;5073978;28;20525;-72
2021/07/08 11:06:17;;;;;;;9.20;6.60;;;;;;;35.58;34.81;99724.31;5073904;28;20041;-71
2021/07/08 11:09:03;;;;;;;9.38;7.05;;;;;;;35.37;35.03;99726.47;5074360;28;20497;-73
2021/07/08 11:11:55;;;;;;;8.40;6.78;;;;;;;34.98;35.33;99727.88;5073858;28;20123;-71
2021/07/08 11:14:26;;;;;;;9.07;7.30;;;;;;;35.09;35.02;99709.06;5074554;28;20044;-71
2021/07/08 11:16:59;;;;;;;9.32;7.07;;;;;;;35.31;35.18;99716.50;5073760;28;20048;-73
2021/07/08 11:19:36;;;;;;;12.38;7.15;;;;;;;35.49;34.34;99706.63;5055846;28;20429;-71
2021/07/08 11:22:12;;;;;;;11.32;7.15;;;;;;;35.75;34.09;99705.78;5073743;28;20072;-71
2021/07/08 11:24:48;;;;;;;9.13;6.70;;;;;;;35.85;34.23;99703.81;5073375;28;20045;-71
2021/07/08 11:27:19;;;;;;;9.85;7.25;;;;;;;35.89;33.26;99707.81;5073517;28;20140;-71
2021/07/08 11:29:49;;;;;;;7.60;6.72;;;;;;;35.99;33.13;99713.88;5073304;28;20060;-71
2021/07/08 11:32:22;;;;;;;8.55;7.50;;;;;;;36.12;32.24;99691.13;5073436;28;20052;-71
2021/07/08 11:34:57;;;;;;;9.25;7.60;;;;;;;36.24;32.25;99707.59;5073585;28;20048;-75
2021/07/08 11:37:31;;;;;;;8.48;7.40;;;;;;;36.28;32.14;99701.78;5073475;28;20482;-71
2021/07/08 11:40:01;;;;;;;9.05;7.82;;;;;;;36.21;31.68;99699.97;5073347;28;20040;-72
2021/07/08 11:42:34;;;;;;;8.73;7.72;;;;;;;36.20;31.75;99700.94;5073213;28;20052;-71
2021/07/08 11:45:07;;;;;;;13.30;7.90;;;;;;;36.19;31.93;99700.09;5073451;28;20055;-71
2021/07/08 11:47:41;;;;;;;8.60;6.97;;;;;;;36.30;32.26;99704.28;5073505;28;20058;-71
2021/07/08 11:50:24;;;;;;;11.05;7.53;;;;;;;36.25;32.02;99698.63;5072845;28;20398;-71
2021/07/08 11:53:07;;;;;;;9.57;7.53;;;;;;;36.17;32.16;99690.63;5073398;28;20477;-71
2021/07/08 11:55:40;;;;;;;8.57;6.93;;;;;;;36.08;32.31;99695.09;5073463;28;20105;-70
2021/07/08 11:58:10;;;;;;;9.15;7.90;;;;;;;36.22;32.27;99688.31;5073234;28;20094;-71
2021/07/08 12:00:42;;;;;;;9.38;7.47;;;;;;;36.08;31.99;99676.50;5073471;28;20364;-71